sensor_id;sensor_type;location;lat;lon;timestamp;P1;durP1;ratioP1;P2;durP2;ratioP2
65658;SDS011;60181;53.258;6.932;2022-11-28T00:02:29;17.50;;;5.30;;
65658;SDS011;60181;53.258;6.932;2022-11-28T00:06:57;17.50;;;5.30;;
65658;SDS011;60181;53.258;6.932;2022-11-28T00:11:25;15.20;;;5.20;;
65658;SDS011;60181;53.258;6.932;2022-11-28T00:15:54;15.20;;;5.20;;
65658;SDS011;60181;53.258;6.932;2022-11-28T00:20:21;13.70;;;5.10;;
65658;SDS011;60181;53.258;6.932;2022-11-28T00:24:49;13.70;;;5.10;;
65658;SDS011;60181;53.258;6.932;2022-11-28T00:29:17;9.00;;;4.70;;
65658;SDS011;60181;53.258;6.932;2022-11-28T00:33:45;9.00;;;4.70;;
65658;SDS011;60181;53.258;6.932;2022-11-28T00:38:13;8.10;;;4.40;;
65658;SDS011;60181;53.258;6.932;2022-11-28T00:42:41;8.10;;;4.40;;
65658;SDS011;60181;53.258;6.932;2022-11-28T00:47:09;8.10;;;4.40;;
65658;SDS011;60181;53.258;6.932;2022-11-28T00:51:37;7.30;;;4.40;;
65658;SDS011;60181;53.258;6.932;2022-11-28T00:56:05;7.30;;;4.40;;
65658;SDS011;60181;53.258;6.932;2022-11-28T01:00:33;9.10;;;4.50;;
65658;SDS011;60181;53.258;6.932;2022-11-28T01:05:01;9.10;;;4.50;;
65658;SDS011;60181;53.258;6.932;2022-11-28T01:09:29;8.60;;;4.50;;
65658;SDS011;60181;53.258;6.932;2022-11-28T01:13:58;8.60;;;4.50;;
65658;SDS011;60181;53.258;6.932;2022-11-28T01:18:25;8.40;;;4.80;;
65658;SDS011;60181;53.258;6.932;2022-11-28T01:22:53;8.40;;;4.80;;
65658;SDS011;60181;53.258;6.932;2022-11-28T01:27:21;8.40;;;4.80;;
65658;SDS011;60181;53.258;6.932;2022-11-28T01:31:49;9.10;;;4.60;;
65658;SDS011;60181;53.258;6.932;2022-11-28T01:36:17;9.10;;;4.60;;
65658;SDS011;60181;53.258;6.932;2022-11-28T01:40:45;9.30;;;4.50;;
65658;SDS011;60181;53.258;6.932;2022-11-28T01:49:41;9.40;;;4.80;;
65658;SDS011;60181;53.258;6.932;2022-11-28T01:54:09;9.40;;;4.80;;
65658;SDS011;60181;53.258;6.932;2022-11-28T01:58:38;8.90;;;4.90;;
65658;SDS011;60181;53.258;6.932;2022-11-28T02:03:07;8.90;;;4.90;;
65658;SDS011;60181;53.258;6.932;2022-11-28T02:07:34;8.90;;;4.90;;
65658;SDS011;60181;53.258;6.932;2022-11-28T02:12:17;8.70;;;4.70;;
65658;SDS011;60181;53.258;6.932;2022-11-28T02:21:10;11.40;;;5.30;;
65658;SDS011;60181;53.258;6.932;2022-11-28T02:25:32;11.40;;;5.30;;
65658;SDS011;60181;53.258;6.932;2022-11-28T02:34:29;11.40;;;5.30;;
65658;SDS011;60181;53.258;6.932;2022-11-28T02:38:59;11.40;;;5.60;;
65658;SDS011;60181;53.258;6.932;2022-11-28T02:47:57;11.40;;;5.60;;
65658;SDS011;60181;53.258;6.932;2022-11-28T02:52:14;11.40;;;5.60;;
65658;SDS011;60181;53.258;6.932;2022-11-28T02:56:51;11.40;;;5.60;;
65658;SDS011;60181;53.258;6.932;2022-11-28T03:01:18;12.40;;;6.40;;
65658;SDS011;60181;53.258;6.932;2022-11-28T03:05:39;12.40;;;6.40;;
65658;SDS011;60181;53.258;6.932;2022-11-28T03:10:11;14.50;;;6.30;;
65658;SDS011;60181;53.258;6.932;2022-11-28T03:19:09;13.50;;;6.20;;
65658;SDS011;60181;53.258;6.932;2022-11-28T03:23:32;13.50;;;6.20;;
65658;SDS011;60181;53.258;6.932;2022-11-28T03:32:27;16.20;;;6.60;;
65658;SDS011;60181;53.258;6.932;2022-11-28T03:36:55;16.20;;;6.60;;
65658;SDS011;60181;53.258;6.932;2022-11-28T03:41:25;12.50;;;6.40;;
65658;SDS011;60181;53.258;6.932;2022-11-28T03:45:51;12.50;;;6.40;;
65658;SDS011;60181;53.258;6.932;2022-11-28T03:50:19;16.10;;;6.80;;
65658;SDS011;60181;53.258;6.932;2022-11-28T03:54:49;16.10;;;6.80;;
65658;SDS011;60181;53.258;6.932;2022-11-28T03:59:17;13.40;;;6.70;;
65658;SDS011;60181;53.258;6.932;2022-11-28T04:03:50;13.40;;;6.70;;
65658;SDS011;60181;53.258;6.932;2022-11-28T04:17:18;12.40;;;6.40;;
65658;SDS011;60181;53.258;6.932;2022-11-28T04:26:02;12.50;;;6.70;;
65658;SDS011;60181;53.258;6.932;2022-11-28T04:30:29;12.80;;;7.00;;
65658;SDS011;60181;53.258;6.932;2022-11-28T04:35:00;12.80;;;7.00;;
65658;SDS011;60181;53.258;6.932;2022-11-28T04:39:25;16.40;;;7.40;;
65658;SDS011;60181;53.258;6.932;2022-11-28T04:43:55;16.40;;;7.40;;
65658;SDS011;60181;53.258;6.932;2022-11-28T04:48:21;13.60;;;7.60;;
65658;SDS011;60181;53.258;6.932;2022-11-28T04:52:55;13.60;;;7.60;;
65658;SDS011;60181;53.258;6.932;2022-11-28T04:57:25;13.60;;;7.60;;
65658;SDS011;60181;53.258;6.932;2022-11-28T05:01:45;14.40;;;7.00;;
65658;SDS011;60181;53.258;6.932;2022-11-28T05:06:25;14.40;;;7.00;;
65658;SDS011;60181;53.258;6.932;2022-11-28T05:10:41;16.10;;;7.50;;
65658;SDS011;60181;53.258;6.932;2022-11-28T05:15:09;16.10;;;7.50;;
65658;SDS011;60181;53.258;6.932;2022-11-28T05:19:37;15.40;;;7.50;;
65658;SDS011;60181;53.258;6.932;2022-11-28T05:24:05;15.40;;;7.50;;
65658;SDS011;60181;53.258;6.932;2022-11-28T05:28:33;13.60;;;7.70;;
65658;SDS011;60181;53.258;6.932;2022-11-28T05:33:01;13.60;;;7.70;;
65658;SDS011;60181;53.258;6.932;2022-11-28T05:37:29;13.60;;;7.70;;
65658;SDS011;60181;53.258;6.932;2022-11-28T05:41:57;15.20;;;8.20;;
65658;SDS011;60181;53.258;6.932;2022-11-28T05:46:25;15.20;;;8.20;;
65658;SDS011;60181;53.258;6.932;2022-11-28T05:50:53;14.40;;;8.10;;
65658;SDS011;60181;53.258;6.932;2022-11-28T05:55:21;14.40;;;8.10;;
65658;SDS011;60181;53.258;6.932;2022-11-28T05:59:49;14.50;;;8.30;;
65658;SDS011;60181;53.258;6.932;2022-11-28T06:04:17;14.50;;;8.30;;
65658;SDS011;60181;53.258;6.932;2022-11-28T06:08:46;15.10;;;8.60;;
65658;SDS011;60181;53.258;6.932;2022-11-28T06:13:13;15.10;;;8.60;;
65658;SDS011;60181;53.258;6.932;2022-11-28T06:17:41;15.10;;;8.60;;
65658;SDS011;60181;53.258;6.932;2022-11-28T06:22:09;15.90;;;9.10;;
65658;SDS011;60181;53.258;6.932;2022-11-28T06:26:37;15.90;;;9.10;;
65658;SDS011;60181;53.258;6.932;2022-11-28T06:31:08;15.30;;;9.10;;
65658;SDS011;60181;53.258;6.932;2022-11-28T06:35:33;15.30;;;9.10;;
65658;SDS011;60181;53.258;6.932;2022-11-28T06:40:01;17.20;;;9.60;;
65658;SDS011;60181;53.258;6.932;2022-11-28T06:44:29;17.20;;;9.60;;
65658;SDS011;60181;53.258;6.932;2022-11-28T06:48:57;18.20;;;10.20;;
65658;SDS011;60181;53.258;6.932;2022-11-28T06:53:25;18.20;;;10.20;;
65658;SDS011;60181;53.258;6.932;2022-11-28T06:57:53;18.20;;;10.20;;
65658;SDS011;60181;53.258;6.932;2022-11-28T07:02:21;17.70;;;10.40;;
65658;SDS011;60181;53.258;6.932;2022-11-28T07:06:49;17.70;;;10.40;;
65658;SDS011;60181;53.258;6.932;2022-11-28T07:11:18;20.20;;;11.60;;
65658;SDS011;60181;53.258;6.932;2022-11-28T07:15:51;20.20;;;11.60;;
65658;SDS011;60181;53.258;6.932;2022-11-28T07:20:13;20.10;;;11.60;;
65658;SDS011;60181;53.258;6.932;2022-11-28T07:24:41;20.10;;;11.60;;
65658;SDS011;60181;53.258;6.932;2022-11-28T07:29:12;20.40;;;9.50;;
65658;SDS011;60181;53.258;6.932;2022-11-28T07:33:37;20.40;;;9.50;;
65658;SDS011;60181;53.258;6.932;2022-11-28T07:38:04;20.40;;;9.50;;
65658;SDS011;60181;53.258;6.932;2022-11-28T07:42:33;13.70;;;7.80;;
65658;SDS011;60181;53.258;6.932;2022-11-28T07:47:01;13.70;;;7.80;;
65658;SDS011;60181;53.258;6.932;2022-11-28T07:51:30;13.10;;;7.10;;
65658;SDS011;60181;53.258;6.932;2022-11-28T07:55:59;13.10;;;7.10;;
65658;SDS011;60181;53.258;6.932;2022-11-28T08:00:24;10.90;;;6.60;;
65658;SDS011;60181;53.258;6.932;2022-11-28T08:04:52;10.90;;;6.60;;
65658;SDS011;60181;53.258;6.932;2022-11-28T08:09:20;11.10;;;6.10;;
65658;SDS011;60181;53.258;6.932;2022-11-28T08:13:49;11.10;;;6.10;;
65658;SDS011;60181;53.258;6.932;2022-11-28T08:18:16;8.70;;;5.40;;
65658;SDS011;60181;53.258;6.932;2022-11-28T08:22:44;8.70;;;5.40;;
65658;SDS011;60181;53.258;6.932;2022-11-28T08:27:12;8.70;;;5.40;;
65658;SDS011;60181;53.258;6.932;2022-11-28T08:31:40;8.50;;;4.80;;
65658;SDS011;60181;53.258;6.932;2022-11-28T08:36:09;8.50;;;4.80;;
65658;SDS011;60181;53.258;6.932;2022-11-28T08:40:36;7.90;;;4.50;;
65658;SDS011;60181;53.258;6.932;2022-11-28T08:45:05;7.90;;;4.50;;
65658;SDS011;60181;53.258;6.932;2022-11-28T08:49:34;8.30;;;4.50;;
65658;SDS011;60181;53.258;6.932;2022-11-28T08:54:00;8.30;;;4.50;;
65658;SDS011;60181;53.258;6.932;2022-11-28T08:58:28;6.60;;;3.90;;
65658;SDS011;60181;53.258;6.932;2022-11-28T09:02:56;6.60;;;3.90;;
65658;SDS011;60181;53.258;6.932;2022-11-28T09:07:24;6.60;;;3.90;;
65658;SDS011;60181;53.258;6.932;2022-11-28T09:11:52;6.10;;;3.70;;
65658;SDS011;60181;53.258;6.932;2022-11-28T09:16:21;6.10;;;3.70;;
65658;SDS011;60181;53.258;6.932;2022-11-28T09:20:48;7.50;;;3.80;;
65658;SDS011;60181;53.258;6.932;2022-11-28T09:25:16;7.50;;;3.80;;
65658;SDS011;60181;53.258;6.932;2022-11-28T09:29:44;6.70;;;3.70;;
65658;SDS011;60181;53.258;6.932;2022-11-28T09:34:12;6.70;;;3.70;;
65658;SDS011;60181;53.258;6.932;2022-11-28T09:38:40;7.70;;;3.50;;
65658;SDS011;60181;53.258;6.932;2022-11-28T09:43:21;7.70;;;3.50;;
65658;SDS011;60181;53.258;6.932;2022-11-28T09:47:36;7.70;;;3.50;;
65658;SDS011;60181;53.258;6.932;2022-11-28T09:56:32;22.00;;;4.00;;
65658;SDS011;60181;53.258;6.932;2022-11-28T10:05:36;10.70;;;3.60;;
65658;SDS011;60181;53.258;6.932;2022-11-28T10:10:03;11.00;;;3.00;;
65658;SDS011;60181;53.258;6.932;2022-11-28T10:18:53;8.90;;;3.30;;
65658;SDS011;60181;53.258;6.932;2022-11-28T10:23:39;8.90;;;3.30;;
65658;SDS011;60181;53.258;6.932;2022-11-28T10:27:48;8.90;;;3.30;;
65658;SDS011;60181;53.258;6.932;2022-11-28T10:32:17;10.80;;;3.20;;
65658;SDS011;60181;53.258;6.932;2022-11-28T10:36:50;10.80;;;3.20;;
65658;SDS011;60181;53.258;6.932;2022-11-28T10:41:26;10.90;;;3.50;;
65658;SDS011;60181;53.258;6.932;2022-11-28T11:03:33;6.50;;;2.70;;
65658;SDS011;60181;53.258;6.932;2022-11-28T11:08:19;6.50;;;2.70;;
65658;SDS011;60181;53.258;6.932;2022-11-28T11:12:29;6.20;;;2.80;;
65658;SDS011;60181;53.258;6.932;2022-11-28T11:16:56;6.20;;;2.80;;
65658;SDS011;60181;53.258;6.932;2022-11-28T11:21:25;7.30;;;2.90;;
65658;SDS011;60181;53.258;6.932;2022-11-28T11:25:55;7.30;;;2.90;;
65658;SDS011;60181;53.258;6.932;2022-11-28T11:30:27;7.30;;;3.00;;
65658;SDS011;60181;53.258;6.932;2022-11-28T11:34:48;7.30;;;3.00;;
65658;SDS011;60181;53.258;6.932;2022-11-28T11:39:20;6.10;;;3.00;;
65658;SDS011;60181;53.258;6.932;2022-11-28T11:43:44;6.10;;;3.00;;
65658;SDS011;60181;53.258;6.932;2022-11-28T11:48:12;4.90;;;2.70;;
65658;SDS011;60181;53.258;6.932;2022-11-28T11:52:40;4.90;;;2.70;;
65658;SDS011;60181;53.258;6.932;2022-11-28T11:57:08;4.90;;;2.70;;
65658;SDS011;60181;53.258;6.932;2022-11-28T12:01:36;4.70;;;2.90;;
65658;SDS011;60181;53.258;6.932;2022-11-28T12:06:15;4.70;;;2.90;;
65658;SDS011;60181;53.258;6.932;2022-11-28T12:10:36;4.60;;;2.70;;
65658;SDS011;60181;53.258;6.932;2022-11-28T12:15:00;4.60;;;2.70;;
65658;SDS011;60181;53.258;6.932;2022-11-28T12:24:09;5.70;;;2.70;;
65658;SDS011;60181;53.258;6.932;2022-11-28T12:32:59;6.60;;;2.90;;
65658;SDS011;60181;53.258;6.932;2022-11-28T12:50:45;8.40;;;2.90;;
65658;SDS011;60181;53.258;6.932;2022-11-28T13:09:00;7.10;;;2.90;;
65658;SDS011;60181;53.258;6.932;2022-11-28T13:13:09;7.10;;;2.90;;
65658;SDS011;60181;53.258;6.932;2022-11-28T13:22:04;6.70;;;3.00;;
65658;SDS011;60181;53.258;6.932;2022-11-28T13:26:36;6.70;;;3.00;;
65658;SDS011;60181;53.258;6.932;2022-11-28T13:35:25;6.20;;;2.90;;
65658;SDS011;60181;53.258;6.932;2022-11-28T13:40:00;6.30;;;3.00;;
65658;SDS011;60181;53.258;6.932;2022-11-28T13:44:24;6.30;;;3.00;;
65658;SDS011;60181;53.258;6.932;2022-11-28T13:48:55;5.70;;;2.70;;
65658;SDS011;60181;53.258;6.932;2022-11-28T13:53:20;5.70;;;2.70;;
65658;SDS011;60181;53.258;6.932;2022-11-28T13:57:44;5.70;;;2.70;;
65658;SDS011;60181;53.258;6.932;2022-11-28T14:02:17;5.40;;;3.00;;
65658;SDS011;60181;53.258;6.932;2022-11-28T14:15:43;4.20;;;2.70;;
65658;SDS011;60181;53.258;6.932;2022-11-28T14:29:00;6.00;;;2.80;;
65658;SDS011;60181;53.258;6.932;2022-11-28T14:33:38;6.00;;;2.80;;
65658;SDS011;60181;53.258;6.932;2022-11-28T14:37:56;6.00;;;2.80;;
65658;SDS011;60181;53.258;6.932;2022-11-28T14:47:05;5.20;;;2.90;;
65658;SDS011;60181;53.258;6.932;2022-11-28T14:51:41;5.20;;;2.90;;
65658;SDS011;60181;53.258;6.932;2022-11-28T14:55:48;5.20;;;2.90;;
65658;SDS011;60181;53.258;6.932;2022-11-28T15:00:18;4.70;;;2.80;;
65658;SDS011;60181;53.258;6.932;2022-11-28T15:13:44;5.50;;;2.90;;
65658;SDS011;60181;53.258;6.932;2022-11-28T15:18:08;5.50;;;2.90;;
65658;SDS011;60181;53.258;6.932;2022-11-28T15:22:39;5.40;;;2.70;;
65658;SDS011;60181;53.258;6.932;2022-11-28T15:31:32;6.80;;;3.10;;
65658;SDS011;60181;53.258;6.932;2022-11-28T15:36:01;6.80;;;3.10;;
65658;SDS011;60181;53.258;6.932;2022-11-28T15:40:34;5.00;;;3.10;;
65658;SDS011;60181;53.258;6.932;2022-11-28T15:45:07;5.00;;;3.10;;
65658;SDS011;60181;53.258;6.932;2022-11-28T15:49:28;4.40;;;3.00;;
65658;SDS011;60181;53.258;6.932;2022-11-28T15:53:52;4.40;;;3.00;;
65658;SDS011;60181;53.258;6.932;2022-11-28T15:58:23;4.40;;;3.00;;
65658;SDS011;60181;53.258;6.932;2022-11-28T16:02:48;7.00;;;3.30;;
65658;SDS011;60181;53.258;6.932;2022-11-28T16:07:16;7.00;;;3.30;;
65658;SDS011;60181;53.258;6.932;2022-11-28T16:11:45;5.20;;;3.00;;
65658;SDS011;60181;53.258;6.932;2022-11-28T16:16:15;5.20;;;3.00;;
65658;SDS011;60181;53.258;6.932;2022-11-28T16:20:40;5.40;;;3.20;;
65658;SDS011;60181;53.258;6.932;2022-11-28T16:25:12;5.40;;;3.20;;
65658;SDS011;60181;53.258;6.932;2022-11-28T16:29:36;6.10;;;3.00;;
65658;SDS011;60181;53.258;6.932;2022-11-28T16:34:04;6.10;;;3.00;;
65658;SDS011;60181;53.258;6.932;2022-11-28T16:38:37;7.20;;;3.20;;
65658;SDS011;60181;53.258;6.932;2022-11-28T16:43:00;7.20;;;3.20;;
65658;SDS011;60181;53.258;6.932;2022-11-28T16:47:28;7.20;;;3.20;;
65658;SDS011;60181;53.258;6.932;2022-11-28T16:56:25;6.40;;;3.40;;
65658;SDS011;60181;53.258;6.932;2022-11-28T17:00:56;5.50;;;3.00;;
65658;SDS011;60181;53.258;6.932;2022-11-28T17:05:20;5.50;;;3.00;;
65658;SDS011;60181;53.258;6.932;2022-11-28T17:09:48;4.90;;;3.20;;
65658;SDS011;60181;53.258;6.932;2022-11-28T17:14:16;4.90;;;3.20;;
65658;SDS011;60181;53.258;6.932;2022-11-28T17:18:44;5.30;;;3.20;;
65658;SDS011;60181;53.258;6.932;2022-11-28T17:23:12;5.30;;;3.20;;
65658;SDS011;60181;53.258;6.932;2022-11-28T17:27:40;5.30;;;3.20;;
65658;SDS011;60181;53.258;6.932;2022-11-28T17:32:11;6.40;;;3.20;;
65658;SDS011;60181;53.258;6.932;2022-11-28T17:36:36;6.40;;;3.20;;
65658;SDS011;60181;53.258;6.932;2022-11-28T17:41:04;6.00;;;3.40;;
65658;SDS011;60181;53.258;6.932;2022-11-28T17:45:33;6.00;;;3.40;;
65658;SDS011;60181;53.258;6.932;2022-11-28T17:50:00;7.60;;;3.30;;
65658;SDS011;60181;53.258;6.932;2022-11-28T17:54:28;7.60;;;3.30;;
65658;SDS011;60181;53.258;6.932;2022-11-28T17:58:56;5.70;;;3.50;;
65658;SDS011;60181;53.258;6.932;2022-11-28T18:03:24;5.70;;;3.50;;
65658;SDS011;60181;53.258;6.932;2022-11-28T18:07:52;5.70;;;3.50;;
65658;SDS011;60181;53.258;6.932;2022-11-28T18:12:20;6.20;;;3.40;;
65658;SDS011;60181;53.258;6.932;2022-11-28T18:16:48;6.20;;;3.40;;
65658;SDS011;60181;53.258;6.932;2022-11-28T18:21:16;6.90;;;3.60;;
65658;SDS011;60181;53.258;6.932;2022-11-28T18:25:44;6.90;;;3.60;;
65658;SDS011;60181;53.258;6.932;2022-11-28T18:30:12;5.70;;;3.40;;
65658;SDS011;60181;53.258;6.932;2022-11-28T18:34:40;5.70;;;3.40;;
65658;SDS011;60181;53.258;6.932;2022-11-28T18:39:09;8.30;;;3.60;;
65658;SDS011;60181;53.258;6.932;2022-11-28T18:43:36;8.30;;;3.60;;
65658;SDS011;60181;53.258;6.932;2022-11-28T18:48:04;8.30;;;3.60;;
65658;SDS011;60181;53.258;6.932;2022-11-28T18:52:31;6.70;;;3.40;;
65658;SDS011;60181;53.258;6.932;2022-11-28T18:56:59;6.70;;;3.40;;
65658;SDS011;60181;53.258;6.932;2022-11-28T19:01:29;6.50;;;3.70;;
65658;SDS011;60181;53.258;6.932;2022-11-28T19:05:56;6.50;;;3.70;;
65658;SDS011;60181;53.258;6.932;2022-11-28T19:10:23;8.10;;;3.90;;
65658;SDS011;60181;53.258;6.932;2022-11-28T19:14:51;8.10;;;3.90;;
65658;SDS011;60181;53.258;6.932;2022-11-28T19:19:19;7.00;;;3.70;;
65658;SDS011;60181;53.258;6.932;2022-11-28T19:23:48;7.00;;;3.70;;
65658;SDS011;60181;53.258;6.932;2022-11-28T19:28:15;7.00;;;3.70;;
65658;SDS011;60181;53.258;6.932;2022-11-28T19:32:43;6.50;;;3.80;;
65658;SDS011;60181;53.258;6.932;2022-11-28T19:37:11;6.50;;;3.80;;
65658;SDS011;60181;53.258;6.932;2022-11-28T19:41:39;8.40;;;4.20;;
65658;SDS011;60181;53.258;6.932;2022-11-28T19:46:08;8.40;;;4.20;;
65658;SDS011;60181;53.258;6.932;2022-11-28T19:50:35;6.50;;;3.70;;
65658;SDS011;60181;53.258;6.932;2022-11-28T19:55:04;6.50;;;3.70;;
65658;SDS011;60181;53.258;6.932;2022-11-28T19:59:31;8.30;;;3.90;;
65658;SDS011;60181;53.258;6.932;2022-11-28T20:03:59;8.30;;;3.90;;
65658;SDS011;60181;53.258;6.932;2022-11-28T20:08:27;8.30;;;3.90;;
65658;SDS011;60181;53.258;6.932;2022-11-28T20:12:55;7.20;;;4.10;;
65658;SDS011;60181;53.258;6.932;2022-11-28T20:17:23;7.20;;;4.10;;
65658;SDS011;60181;53.258;6.932;2022-11-28T20:21:54;7.00;;;4.00;;
65658;SDS011;60181;53.258;6.932;2022-11-28T20:26:20;7.00;;;4.00;;
65658;SDS011;60181;53.258;6.932;2022-11-28T20:30:47;7.40;;;4.00;;
65658;SDS011;60181;53.258;6.932;2022-11-28T20:35:16;7.40;;;4.00;;
65658;SDS011;60181;53.258;6.932;2022-11-28T20:39:43;8.40;;;4.20;;
65658;SDS011;60181;53.258;6.932;2022-11-28T20:44:11;8.40;;;4.20;;
65658;SDS011;60181;53.258;6.932;2022-11-28T20:48:39;8.10;;;4.20;;
65658;SDS011;60181;53.258;6.932;2022-11-28T20:53:07;8.10;;;4.20;;
65658;SDS011;60181;53.258;6.932;2022-11-28T20:57:35;8.10;;;4.20;;
65658;SDS011;60181;53.258;6.932;2022-11-28T21:02:03;7.90;;;4.10;;
65658;SDS011;60181;53.258;6.932;2022-11-28T21:06:31;7.90;;;4.10;;
65658;SDS011;60181;53.258;6.932;2022-11-28T21:11:03;18.70;;;4.80;;
65658;SDS011;60181;53.258;6.932;2022-11-28T21:15:27;18.70;;;4.80;;
65658;SDS011;60181;53.258;6.932;2022-11-28T21:19:55;24.70;;;10.00;;
65658;SDS011;60181;53.258;6.932;2022-11-28T21:24:23;24.70;;;10.00;;
65658;SDS011;60181;53.258;6.932;2022-11-28T21:28:52;30.20;;;12.30;;
65658;SDS011;60181;53.258;6.932;2022-11-28T21:33:19;30.20;;;12.30;;
65658;SDS011;60181;53.258;6.932;2022-11-28T21:37:47;30.20;;;12.30;;
65658;SDS011;60181;53.258;6.932;2022-11-28T21:42:15;34.30;;;13.80;;
65658;SDS011;60181;53.258;6.932;2022-11-28T21:46:43;34.30;;;13.80;;
65658;SDS011;60181;53.258;6.932;2022-11-28T21:51:15;40.90;;;16.00;;
65658;SDS011;60181;53.258;6.932;2022-11-28T21:55:39;40.90;;;16.00;;
65658;SDS011;60181;53.258;6.932;2022-11-28T22:00:08;42.80;;;16.00;;
65658;SDS011;60181;53.258;6.932;2022-11-28T22:04:35;42.80;;;16.00;;
65658;SDS011;60181;53.258;6.932;2022-11-28T22:09:04;47.50;;;16.10;;
65658;SDS011;60181;53.258;6.932;2022-11-28T22:13:31;47.50;;;16.10;;
65658;SDS011;60181;53.258;6.932;2022-11-28T22:17:59;47.50;;;16.10;;
65658;SDS011;60181;53.258;6.932;2022-11-28T22:22:27;51.80;;;16.50;;
65658;SDS011;60181;53.258;6.932;2022-11-28T22:26:55;51.80;;;16.50;;
65658;SDS011;60181;53.258;6.932;2022-11-28T22:31:23;57.40;;;16.90;;
65658;SDS011;60181;53.258;6.932;2022-11-28T22:35:51;57.40;;;16.90;;
65658;SDS011;60181;53.258;6.932;2022-11-28T22:40:19;62.60;;;18.10;;
65658;SDS011;60181;53.258;6.932;2022-11-28T22:44:47;62.60;;;18.10;;
65658;SDS011;60181;53.258;6.932;2022-11-28T22:49:15;66.50;;;18.60;;
65658;SDS011;60181;53.258;6.932;2022-11-28T22:53:43;66.50;;;18.60;;
65658;SDS011;60181;53.258;6.932;2022-11-28T22:58:11;66.50;;;18.60;;
65658;SDS011;60181;53.258;6.932;2022-11-28T23:02:39;65.10;;;18.00;;
65658;SDS011;60181;53.258;6.932;2022-11-28T23:07:07;65.10;;;18.00;;
65658;SDS011;60181;53.258;6.932;2022-11-28T23:11:36;66.40;;;19.70;;
65658;SDS011;60181;53.258;6.932;2022-11-28T23:16:10;66.40;;;19.70;;
65658;SDS011;60181;53.258;6.932;2022-11-28T23:20:31;62.90;;;18.10;;
65658;SDS011;60181;53.258;6.932;2022-11-28T23:24:59;62.90;;;18.10;;
65658;SDS011;60181;53.258;6.932;2022-11-28T23:29:27;65.50;;;19.00;;
65658;SDS011;60181;53.258;6.932;2022-11-28T23:33:55;65.50;;;19.00;;
65658;SDS011;60181;53.258;6.932;2022-11-28T23:38:23;65.50;;;19.00;;
65658;SDS011;60181;53.258;6.932;2022-11-28T23:42:51;68.50;;;18.60;;
65658;SDS011;60181;53.258;6.932;2022-11-28T23:47:19;68.50;;;18.60;;
65658;SDS011;60181;53.258;6.932;2022-11-28T23:51:47;67.40;;;18.50;;
65658;SDS011;60181;53.258;6.932;2022-11-28T23:56:19;67.40;;;18.50;;
